Darlington, SC

2:36 AM EST on November 20, 2017 (GMT -0500)
Kingsgate | | Change Station
Active Advisory: Frost Advisory

Elev 157 ft 34.22 °N, 79.84 °W | Updated 5 seconds ago

Clear
Clear
31.1 °F
Feels Like 31 °F
N
0.0
Wind Variable Wind from SW
Gusts 0.0 mph

Today
High -- | Low -- °F
--% Chance of Precip.
Yesterday
High -- | Low -- °F
Precip. -- in
Pressure 30.17 in
Visibility 10.0 miles
Clouds Clear
Windchill 31 °F
Dew Point 30 °F
Humidity 97%
Rainfall 0.00 in
Snow Depth Not available.
6:57 AM 5:12 PM
Waxing Crescent, 3% visible
METAR KUDG 200656Z AUTO 00000KT 10SM CLR M01/M02 A3014 RMK AO2 SLP214 T10061022 FZRANO
Pressure 30.17 in
Visibility 10.0 miles
Clouds Clear
Windchill 31 °F
Dew Point 30 °F
Humidity 97%
Rainfall 0.00 in
Snow Depth Not available.
6:57 AM 5:12 PM
Waxing Crescent, 3% visible
METAR KUDG 200656Z AUTO 00000KT 10SM CLR M01/M02 A3014 RMK AO2 SLP214 T10061022 FZRANO

Get Your Daily Forecast Email!

Thanks for signing up!

Be on the lookout for a verification email in your inbox.

You'll start receiving severe weather alerts in your inbox..

×

10-Day Weather Forecast

Almanac

Astronomy

Nov. 20, 2017 Rise Set
Actual Time
Civil Twilight
Nautical Twilight
Astronomical Twilight
Moon
Length of Visible Light
Length of Day
Tomorrow will be .
, % of the Moon is Illuminated

Today's Extremes

State Highs State Lows

Community

WunderPhotos

Category 6

Welcome to Category 6. This is the collective home for Weather Underground's featured writeups by Dr. Jeff Masters (right), Bob Henson (left), Chris Burt, and other regular contributors.

Nearby

Air Quality

  Air Quality AQ Index Pollutant
Not available.

Snow Depth

Station Depth Elevation

Earthquake Activity

City Distance Mag. Time & Date
Minimum magnitude displayed is 2.5.

Coastal Water Temperatures

Place Temperature

Stations

Nearby Weather Stations

Station Location Temp. Windchill Dew Point Humidity Wind Precip. Elev Updated Type
                   

Watches & Warnings

Frost Advisory
Issued: 4:30 PM EST Nov. 19, 2017 – National Weather Service

... Frost advisory remains in effect from 4 am to 9 am EST
Monday...

* temperatures... in the mid 30s.

* Timing... frost may develop in the early morning hours between
4 and 9 am.

* Impacts... a frost advisory means that frost is expected.
Sensitive outdoor plants may be killed if left uncovered.

Precautionary/preparedness actions...

A frost advisory means that widespread frost is expected.
Sensitive outdoor plants may be killed if left uncovered.



40